FMMIFMEP

Guest
Details From FMMI - IVATO
To FMEP - ST PIERRE PIERREFONDS
Flight Number -
Tags generated
Created
Modified
Stats Distance 495 nm / 917 km
Max Altitude 35,000 ft / 10,668 m
Waypoints 6
Social Downloads 1
Likes 0
Share VATSIM

Download

Looking for another format? Having issues loading an existing format? Contact us
Advertisement - Login to hide

Notes

Basic altitude profile: - Ascent Rate: 2500ft/min - Ascent Speed: 250kts - Cruise Altitude: 35000ft - Cruise Speed: 420kts - Descent Rate: 1500ft/min - Descent Speed: 250kts

Route

FMMI TE UA400 EGLIP UA400F OKDOP FMEP

ID Type Via Altitude Latitude Longitude Leg Dist Tot Dist Heading (true) Name
O FMMI APT - 0 ft / 0 m -18.79695˚ 47.47881˚ - 0 nm - IVATO
TE NDB - 15,500 ft / 4,724 m -18.95342˚ 48.22550˚ 43 nm 43 nm 103° / 102° MORAMANGA NDB
IXENI FIX UA400 (AWY-HI) 35,000 ft / 10,668 m -19.28694˚ 50.10833˚ 108 nm 152 nm 101° / 100° -
EGLIP FIX UA400 (AWY-HI) 35,000 ft / 10,668 m -19.77919˚ 53.12164˚ 173 nm 325 nm 100° / 99° -
OKDOP FIX UA400F (AWY-HI) 21,700 ft / 6,614 m -19.94786˚ 54.23656˚ 63 nm 389 nm 99° / 99° -
O FMEP APT - 0 ft / 0 m -21.32004˚ 55.42358˚ 106 nm 495 nm 141° / 141° ST PIERRE PIERREFONDS

Altitude Profile

Advertisement - Login to hide

Weather


0- 5 10 15 20 25 30 35+ Temperature / ° C

Clouds and Precipitation
Forecast for 2017-12-18 18:00 UTC. Updated an hour ago

Ground ~20,000 ft ~40,000 ft Winds

FMMI

Details ICAO FMMI (TNR)
Name IVATO
Region Comoros, Mayotte, Réunion and Madagascar
Timezone Indian/Antananarivo (UTC+3.0)
Stats Elevation 4,198 ft / 1,280 m (AMSL)
Location -18.796950° 47.478806°
Runways 1
Magnetic Variation 15.161° W

METAR

FMMI 181600Z 09007KT 9999 FEW017CB SCT020 21/20 Q1020 NOSIG

Decode

TAF

TAF FMMI 181100Z 1812/1918 12008KT 9999 FEW017 SCT020 PROB30 TEMPO 1815/1820 TSRA BKN015CB

Decode

Departure Runways

ID Width Length Bearing (true) Bearing (mag) Surface Threshold Offset Overrun Length
11 148 ft / 45 m 10,167 ft / 3,099 m 98.92° 114.08° Asphalt 0 ft / 0 m 90 ft / 27 m
29 148 ft / 45 m 10,167 ft / 3,099 m 278.91° 294.07° Asphalt 0 ft / 0 m 90 ft / 27 m

FMEP

Details ICAO FMEP (ZSE)
Name ST PIERRE PIERREFONDS
Region Comoros, Mayotte, Réunion and Madagascar
Timezone Unknown (UTC+0.0)
Stats Elevation 56 ft / 17 m (AMSL)
Location -21.320039° 55.423581°
Runways 1
Magnetic Variation 19.531° W

METAR

FMEP 181600Z AUTO 03004KT 9999 FEW024 BKN045 BKN076 27/22 Q1016

Decode

TAF

Not found

Destination Runways

ID Width Length Bearing (true) Bearing (mag) Surface Threshold Offset Overrun Length
15 98 ft / 30 m 6,125 ft / 1,867 m 129.02° 148.55° Asphalt 0 ft / 0 m 0 ft / 0 m
33 98 ft / 30 m 6,125 ft / 1,867 m 309.01° 328.54° Asphalt 0 ft / 0 m 0 ft / 0 m

Popular Alternatives